sensor_id;sensor_type;location;lat;lon;timestamp;P1;durP1;ratioP1;P2;durP2;ratioP2
26157;SDS011;67284;44.782;10.282;2023-02-11T00:00:30;36.50;;;19.50;;
26157;SDS011;67284;44.782;10.282;2023-02-11T00:05:22;40.28;;;20.17;;
26157;SDS011;67284;44.782;10.282;2023-02-11T00:10:14;36.78;;;18.55;;
26157;SDS011;67284;44.782;10.282;2023-02-11T00:15:06;34.83;;;19.17;;
26157;SDS011;67284;44.782;10.282;2023-02-11T00:19:58;39.33;;;20.27;;
26157;SDS011;67284;44.782;10.282;2023-02-11T00:24:50;36.97;;;18.25;;
26157;SDS011;67284;44.782;10.282;2023-02-11T00:29:42;38.67;;;19.85;;
26157;SDS011;67284;44.782;10.282;2023-02-11T00:34:34;38.30;;;20.33;;
26157;SDS011;67284;44.782;10.282;2023-02-11T00:39:27;36.65;;;19.33;;
26157;SDS011;67284;44.782;10.282;2023-02-11T00:44:19;39.40;;;19.83;;
26157;SDS011;67284;44.782;10.282;2023-02-11T00:49:11;35.45;;;18.95;;
26157;SDS011;67284;44.782;10.282;2023-02-11T00:54:05;37.50;;;18.38;;
26157;SDS011;67284;44.782;10.282;2023-02-11T00:58:57;39.03;;;18.15;;
26157;SDS011;67284;44.782;10.282;2023-02-11T01:03:49;40.92;;;19.52;;
26157;SDS011;67284;44.782;10.282;2023-02-11T01:08:41;38.40;;;18.23;;
26157;SDS011;67284;44.782;10.282;2023-02-11T01:13:33;41.97;;;18.58;;
26157;SDS011;67284;44.782;10.282;2023-02-11T01:18:26;39.05;;;18.63;;
26157;SDS011;67284;44.782;10.282;2023-02-11T01:23:18;32.22;;;17.08;;
26157;SDS011;67284;44.782;10.282;2023-02-11T01:28:14;32.97;;;15.32;;
26157;SDS011;67284;44.782;10.282;2023-02-11T01:33:08;32.80;;;17.80;;
26157;SDS011;67284;44.782;10.282;2023-02-11T01:38:00;32.42;;;16.05;;
26157;SDS011;67284;44.782;10.282;2023-02-11T01:42:52;30.92;;;15.70;;
26157;SDS011;67284;44.782;10.282;2023-02-11T01:47:44;37.97;;;18.77;;
26157;SDS011;67284;44.782;10.282;2023-02-11T01:52:36;35.28;;;16.73;;
26157;SDS011;67284;44.782;10.282;2023-02-11T01:57:31;37.78;;;17.10;;
26157;SDS011;67284;44.782;10.282;2023-02-11T02:02:38;28.58;;;17.05;;
26157;SDS011;67284;44.782;10.282;2023-02-11T02:07:55;34.40;;;16.63;;
26157;SDS011;67284;44.782;10.282;2023-02-11T02:12:53;29.30;;;15.60;;
26157;SDS011;67284;44.782;10.282;2023-02-11T02:17:51;32.80;;;16.13;;
26157;SDS011;67284;44.782;10.282;2023-02-11T02:23:49;29.77;;;15.45;;
26157;SDS011;67284;44.782;10.282;2023-02-11T02:33:32;29.40;;;15.43;;
26157;SDS011;67284;44.782;10.282;2023-02-11T02:43:21;33.13;;;15.60;;
26157;SDS011;67284;44.782;10.282;2023-02-11T02:48:23;26.85;;;14.60;;
26157;SDS011;67284;44.782;10.282;2023-02-11T02:53:28;27.65;;;13.68;;
26157;SDS011;67284;44.782;10.282;2023-02-11T03:13:37;28.75;;;14.13;;
26157;SDS011;67284;44.782;10.282;2023-02-11T03:18:30;26.60;;;13.93;;
26157;SDS011;67284;44.782;10.282;2023-02-11T03:23:27;27.20;;;14.38;;
26157;SDS011;67284;44.782;10.282;2023-02-11T03:28:29;29.52;;;15.25;;
26157;SDS011;67284;44.782;10.282;2023-02-11T03:38:47;29.80;;;14.85;;
26157;SDS011;67284;44.782;10.282;2023-02-11T03:43:45;29.90;;;14.48;;
26157;SDS011;67284;44.782;10.282;2023-02-11T03:48:42;31.67;;;13.75;;
26157;SDS011;67284;44.782;10.282;2023-02-11T03:53:39;26.67;;;15.02;;
26157;SDS011;67284;44.782;10.282;2023-02-11T03:58:33;28.95;;;14.13;;
26157;SDS011;67284;44.782;10.282;2023-02-11T04:03:25;27.50;;;13.05;;
26157;SDS011;67284;44.782;10.282;2023-02-11T04:08:17;29.17;;;13.98;;
26157;SDS011;67284;44.782;10.282;2023-02-11T04:13:09;28.80;;;13.40;;
26157;SDS011;67284;44.782;10.282;2023-02-11T04:18:00;26.77;;;14.23;;
26157;SDS011;67284;44.782;10.282;2023-02-11T04:22:53;29.10;;;13.60;;
26157;SDS011;67284;44.782;10.282;2023-02-11T04:27:45;25.02;;;13.00;;
26157;SDS011;67284;44.782;10.282;2023-02-11T04:32:37;27.13;;;14.48;;
26157;SDS011;67284;44.782;10.282;2023-02-11T04:37:29;26.05;;;13.18;;
26157;SDS011;67284;44.782;10.282;2023-02-11T04:42:21;25.80;;;14.10;;
26157;SDS011;67284;44.782;10.282;2023-02-11T04:47:12;27.70;;;14.88;;
26157;SDS011;67284;44.782;10.282;2023-02-11T04:52:05;30.92;;;12.90;;
26157;SDS011;67284;44.782;10.282;2023-02-11T04:56:57;25.08;;;13.70;;
26157;SDS011;67284;44.782;10.282;2023-02-11T05:01:49;28.00;;;13.40;;
26157;SDS011;67284;44.782;10.282;2023-02-11T05:06:41;25.45;;;12.88;;
26157;SDS011;67284;44.782;10.282;2023-02-11T05:11:33;24.98;;;13.57;;
26157;SDS011;67284;44.782;10.282;2023-02-11T05:16:25;23.50;;;12.95;;
26157;SDS011;67284;44.782;10.282;2023-02-11T05:21:17;22.70;;;12.70;;
26157;SDS011;67284;44.782;10.282;2023-02-11T05:26:10;27.10;;;13.82;;
26157;SDS011;67284;44.782;10.282;2023-02-11T05:31:02;27.35;;;12.90;;
26157;SDS011;67284;44.782;10.282;2023-02-11T05:36:01;23.30;;;12.40;;
26157;SDS011;67284;44.782;10.282;2023-02-11T05:40:55;21.85;;;11.10;;
26157;SDS011;67284;44.782;10.282;2023-02-11T05:45:47;24.40;;;12.57;;
26157;SDS011;67284;44.782;10.282;2023-02-11T05:50:40;22.48;;;11.50;;
26157;SDS011;67284;44.782;10.282;2023-02-11T05:55:32;25.90;;;13.43;;
26157;SDS011;67284;44.782;10.282;2023-02-11T06:00:24;28.42;;;12.45;;
26157;SDS011;67284;44.782;10.282;2023-02-11T06:05:16;24.45;;;13.65;;
26157;SDS011;67284;44.782;10.282;2023-02-11T06:10:08;24.17;;;12.50;;
26157;SDS011;67284;44.782;10.282;2023-02-11T06:15:00;22.90;;;13.60;;
26157;SDS011;67284;44.782;10.282;2023-02-11T06:19:52;24.38;;;12.57;;
26157;SDS011;67284;44.782;10.282;2023-02-11T06:24:44;28.10;;;13.70;;
26157;SDS011;67284;44.782;10.282;2023-02-11T06:29:51;24.95;;;12.80;;
26157;SDS011;67284;44.782;10.282;2023-02-11T06:34:43;25.65;;;12.10;;
26157;SDS011;67284;44.782;10.282;2023-02-11T06:39:35;24.20;;;13.10;;
26157;SDS011;67284;44.782;10.282;2023-02-11T06:44:28;21.77;;;11.15;;
26157;SDS011;67284;44.782;10.282;2023-02-11T06:49:19;23.05;;;11.88;;
26157;SDS011;67284;44.782;10.282;2023-02-11T06:54:11;20.90;;;10.73;;
26157;SDS011;67284;44.782;10.282;2023-02-11T06:59:03;22.95;;;11.43;;
26157;SDS011;67284;44.782;10.282;2023-02-11T07:03:55;20.58;;;10.23;;
26157;SDS011;67284;44.782;10.282;2023-02-11T07:08:47;25.10;;;12.43;;
26157;SDS011;67284;44.782;10.282;2023-02-11T07:13:39;25.48;;;11.90;;
26157;SDS011;67284;44.782;10.282;2023-02-11T07:18:31;25.25;;;12.38;;
26157;SDS011;67284;44.782;10.282;2023-02-11T07:23:22;23.90;;;12.18;;
26157;SDS011;67284;44.782;10.282;2023-02-11T07:28:14;25.15;;;11.98;;
26157;SDS011;67284;44.782;10.282;2023-02-11T07:33:06;24.15;;;10.73;;
26157;SDS011;67284;44.782;10.282;2023-02-11T07:37:58;18.92;;;10.45;;
26157;SDS011;67284;44.782;10.282;2023-02-11T07:42:49;20.90;;;11.55;;
26157;SDS011;67284;44.782;10.282;2023-02-11T07:47:41;24.05;;;10.25;;
26157;SDS011;67284;44.782;10.282;2023-02-11T07:52:33;18.02;;;9.73;;
26157;SDS011;67284;44.782;10.282;2023-02-11T07:57:25;21.98;;;11.05;;
26157;SDS011;67284;44.782;10.282;2023-02-11T08:02:17;20.75;;;10.60;;
26157;SDS011;67284;44.782;10.282;2023-02-11T08:07:09;24.13;;;10.35;;
26157;SDS011;67284;44.782;10.282;2023-02-11T08:12:00;22.98;;;11.10;;
26157;SDS011;67284;44.782;10.282;2023-02-11T08:16:52;20.55;;;12.20;;
26157;SDS011;67284;44.782;10.282;2023-02-11T08:21:44;23.00;;;10.63;;
26157;SDS011;67284;44.782;10.282;2023-02-11T08:26:37;21.73;;;11.68;;
26157;SDS011;67284;44.782;10.282;2023-02-11T08:31:31;17.20;;;10.35;;
26157;SDS011;67284;44.782;10.282;2023-02-11T08:36:26;18.67;;;10.18;;
26157;SDS011;67284;44.782;10.282;2023-02-11T08:41:19;21.20;;;10.77;;
26157;SDS011;67284;44.782;10.282;2023-02-11T08:46:15;26.00;;;13.27;;
26157;SDS011;67284;44.782;10.282;2023-02-11T08:51:09;24.08;;;12.65;;
26157;SDS011;67284;44.782;10.282;2023-02-11T08:56:04;24.67;;;12.27;;
26157;SDS011;67284;44.782;10.282;2023-02-11T09:00:56;41.70;;;17.90;;
26157;SDS011;67284;44.782;10.282;2023-02-11T09:05:48;71.68;;;31.92;;
26157;SDS011;67284;44.782;10.282;2023-02-11T09:10:43;32.97;;;16.95;;
26157;SDS011;67284;44.782;10.282;2023-02-11T09:15:35;31.90;;;16.52;;
26157;SDS011;67284;44.782;10.282;2023-02-11T09:20:27;29.40;;;15.93;;
26157;SDS011;67284;44.782;10.282;2023-02-11T09:25:19;32.40;;;15.88;;
26157;SDS011;67284;44.782;10.282;2023-02-11T09:30:11;29.70;;;16.00;;
26157;SDS011;67284;44.782;10.282;2023-02-11T09:35:04;42.60;;;19.92;;
26157;SDS011;67284;44.782;10.282;2023-02-11T09:39:56;35.22;;;16.67;;
26157;SDS011;67284;44.782;10.282;2023-02-11T09:44:47;33.38;;;18.60;;
26157;SDS011;67284;44.782;10.282;2023-02-11T09:49:44;34.85;;;18.23;;
26157;SDS011;67284;44.782;10.282;2023-02-11T09:54:44;37.70;;;18.60;;
26157;SDS011;67284;44.782;10.282;2023-02-11T09:59:40;41.17;;;19.05;;
26157;SDS011;67284;44.782;10.282;2023-02-11T10:25:52;36.42;;;19.17;;
26157;SDS011;67284;44.782;10.282;2023-02-11T10:35:48;34.53;;;17.60;;
26157;SDS011;67284;44.782;10.282;2023-02-11T10:40:40;35.63;;;19.45;;
26157;SDS011;67284;44.782;10.282;2023-02-11T10:45:33;34.85;;;18.45;;
26157;SDS011;67284;44.782;10.282;2023-02-11T10:50:29;36.65;;;20.65;;
26157;SDS011;67284;44.782;10.282;2023-02-11T10:55:25;37.08;;;19.92;;
26157;SDS011;67284;44.782;10.282;2023-02-11T11:05:22;37.75;;;18.83;;
26157;SDS011;67284;44.782;10.282;2023-02-11T11:15:35;56.22;;;25.05;;
26157;SDS011;67284;44.782;10.282;2023-02-11T11:20:28;69.57;;;32.95;;
26157;SDS011;67284;44.782;10.282;2023-02-11T11:25:27;60.83;;;29.95;;
26157;SDS011;67284;44.782;10.282;2023-02-11T11:30:20;49.88;;;25.40;;
26157;SDS011;67284;44.782;10.282;2023-02-11T11:35:26;51.72;;;24.92;;
26157;SDS011;67284;44.782;10.282;2023-02-11T11:40:23;47.65;;;24.88;;
26157;SDS011;67284;44.782;10.282;2023-02-11T11:45:23;53.28;;;27.70;;
26157;SDS011;67284;44.782;10.282;2023-02-11T11:55:23;39.10;;;21.80;;
26157;SDS011;67284;44.782;10.282;2023-02-11T12:00:27;38.85;;;20.67;;
26157;SDS011;67284;44.782;10.282;2023-02-11T12:05:26;37.65;;;20.48;;
26157;SDS011;67284;44.782;10.282;2023-02-11T12:10:26;38.25;;;21.92;;
26157;SDS011;67284;44.782;10.282;2023-02-11T12:47:24;44.30;;;21.23;;
26157;SDS011;67284;44.782;10.282;2023-02-11T12:52:29;45.63;;;25.88;;
26157;SDS011;67284;44.782;10.282;2023-02-11T12:57:31;55.05;;;23.23;;
26157;SDS011;67284;44.782;10.282;2023-02-11T13:02:28;39.70;;;21.45;;
26157;SDS011;67284;44.782;10.282;2023-02-11T13:07:33;35.17;;;20.05;;
26157;SDS011;67284;44.782;10.282;2023-02-11T13:12:29;38.07;;;20.90;;
26157;SDS011;67284;44.782;10.282;2023-02-11T13:17:43;38.33;;;21.92;;
26157;SDS011;67284;44.782;10.282;2023-02-11T13:22:44;38.05;;;20.60;;
26157;SDS011;67284;44.782;10.282;2023-02-11T13:27:55;37.72;;;20.38;;
26157;SDS011;67284;44.782;10.282;2023-02-11T13:37:45;45.58;;;24.05;;
26157;SDS011;67284;44.782;10.282;2023-02-11T13:47:40;40.22;;;21.50;;
26157;SDS011;67284;44.782;10.282;2023-02-11T13:52:33;43.75;;;22.90;;
26157;SDS011;67284;44.782;10.282;2023-02-11T13:57:31;35.78;;;19.52;;
26157;SDS011;67284;44.782;10.282;2023-02-11T14:02:27;43.75;;;23.40;;
26157;SDS011;67284;44.782;10.282;2023-02-11T14:13:29;38.05;;;19.80;;
26157;SDS011;67284;44.782;10.282;2023-02-11T14:23:35;35.55;;;19.15;;
26157;SDS011;67284;44.782;10.282;2023-02-11T14:28:28;38.30;;;20.58;;
26157;SDS011;67284;44.782;10.282;2023-02-11T14:43:25;38.72;;;21.65;;
26157;SDS011;67284;44.782;10.282;2023-02-11T14:48:25;40.25;;;21.73;;
26157;SDS011;67284;44.782;10.282;2023-02-11T14:53:21;38.53;;;20.27;;
26157;SDS011;67284;44.782;10.282;2023-02-11T15:03:22;39.90;;;21.70;;
26157;SDS011;67284;44.782;10.282;2023-02-11T15:08:16;41.53;;;21.98;;
26157;SDS011;67284;44.782;10.282;2023-02-11T15:13:07;39.95;;;21.40;;
26157;SDS011;67284;44.782;10.282;2023-02-11T15:18:05;44.10;;;23.10;;
26157;SDS011;67284;44.782;10.282;2023-02-11T15:23:05;42.72;;;21.95;;
26157;SDS011;67284;44.782;10.282;2023-02-11T15:27:59;42.42;;;24.67;;
26157;SDS011;67284;44.782;10.282;2023-02-11T15:32:56;42.25;;;23.00;;
26157;SDS011;67284;44.782;10.282;2023-02-11T15:42:52;40.88;;;22.08;;
26157;SDS011;67284;44.782;10.282;2023-02-11T15:47:52;38.47;;;19.23;;
26157;SDS011;67284;44.782;10.282;2023-02-11T15:52:46;40.07;;;21.53;;
26157;SDS011;67284;44.782;10.282;2023-02-11T15:57:44;40.65;;;20.25;;
26157;SDS011;67284;44.782;10.282;2023-02-11T16:02:40;38.42;;;21.83;;
26157;SDS011;67284;44.782;10.282;2023-02-11T16:07:49;36.30;;;20.60;;
26157;SDS011;67284;44.782;10.282;2023-02-11T16:12:48;36.97;;;20.63;;
26157;SDS011;67284;44.782;10.282;2023-02-11T16:17:41;39.92;;;22.65;;
26157;SDS011;67284;44.782;10.282;2023-02-11T16:22:34;47.13;;;23.35;;
26157;SDS011;67284;44.782;10.282;2023-02-11T16:27:31;55.30;;;26.52;;
26157;SDS011;67284;44.782;10.282;2023-02-11T16:32:28;51.05;;;26.42;;
26157;SDS011;67284;44.782;10.282;2023-02-11T16:37:21;51.85;;;27.15;;
26157;SDS011;67284;44.782;10.282;2023-02-11T16:42:12;57.47;;;28.48;;
26157;SDS011;67284;44.782;10.282;2023-02-11T16:47:05;52.80;;;28.67;;
26157;SDS011;67284;44.782;10.282;2023-02-11T16:52:07;55.63;;;29.27;;
26157;SDS011;67284;44.782;10.282;2023-02-11T16:57:16;57.25;;;28.92;;
26157;SDS011;67284;44.782;10.282;2023-02-11T17:02:13;56.00;;;29.67;;
26157;SDS011;67284;44.782;10.282;2023-02-11T17:07:09;52.90;;;29.70;;
26157;SDS011;67284;44.782;10.282;2023-02-11T17:12:00;57.70;;;31.75;;
26157;SDS011;67284;44.782;10.282;2023-02-11T17:16:52;54.00;;;28.15;;
26157;SDS011;67284;44.782;10.282;2023-02-11T17:21:44;51.03;;;29.02;;
26157;SDS011;67284;44.782;10.282;2023-02-11T17:26:38;52.20;;;28.52;;
26157;SDS011;67284;44.782;10.282;2023-02-11T17:31:30;56.80;;;28.50;;
26157;SDS011;67284;44.782;10.282;2023-02-11T17:36:22;59.92;;;30.77;;
26157;SDS011;67284;44.782;10.282;2023-02-11T17:41:14;54.08;;;28.33;;
26157;SDS011;67284;44.782;10.282;2023-02-11T17:46:06;58.30;;;30.63;;
26157;SDS011;67284;44.782;10.282;2023-02-11T17:50:58;59.90;;;31.08;;
26157;SDS011;67284;44.782;10.282;2023-02-11T17:55:50;56.97;;;28.13;;
26157;SDS011;67284;44.782;10.282;2023-02-11T18:00:42;57.92;;;30.58;;
26157;SDS011;67284;44.782;10.282;2023-02-11T18:05:35;55.17;;;32.30;;
26157;SDS011;67284;44.782;10.282;2023-02-11T18:10:27;54.20;;;30.85;;
26157;SDS011;67284;44.782;10.282;2023-02-11T18:15:19;60.50;;;33.45;;
26157;SDS011;67284;44.782;10.282;2023-02-11T18:20:11;75.03;;;37.03;;
26157;SDS011;67284;44.782;10.282;2023-02-11T18:25:03;73.05;;;35.90;;
26157;SDS011;67284;44.782;10.282;2023-02-11T18:29:55;69.72;;;36.53;;
26157;SDS011;67284;44.782;10.282;2023-02-11T18:34:47;80.85;;;39.05;;
26157;SDS011;67284;44.782;10.282;2023-02-11T18:39:38;80.60;;;41.03;;
26157;SDS011;67284;44.782;10.282;2023-02-11T18:44:31;76.53;;;38.30;;
26157;SDS011;67284;44.782;10.282;2023-02-11T18:49:22;63.88;;;35.40;;
26157;SDS011;67284;44.782;10.282;2023-02-11T18:54:14;72.50;;;37.15;;
26157;SDS011;67284;44.782;10.282;2023-02-11T18:59:06;70.50;;;35.10;;
26157;SDS011;67284;44.782;10.282;2023-02-11T19:03:59;70.88;;;38.22;;
26157;SDS011;67284;44.782;10.282;2023-02-11T19:08:55;67.88;;;35.60;;
26157;SDS011;67284;44.782;10.282;2023-02-11T19:13:50;66.05;;;36.78;;
26157;SDS011;67284;44.782;10.282;2023-02-11T19:18:42;69.47;;;37.70;;
26157;SDS011;67284;44.782;10.282;2023-02-11T19:23:34;64.50;;;35.30;;
26157;SDS011;67284;44.782;10.282;2023-02-11T19:28:26;68.93;;;37.70;;
26157;SDS011;67284;44.782;10.282;2023-02-11T19:33:18;71.85;;;38.15;;
26157;SDS011;67284;44.782;10.282;2023-02-11T19:38:09;68.82;;;37.45;;
26157;SDS011;67284;44.782;10.282;2023-02-11T19:43:03;71.75;;;37.00;;
26157;SDS011;67284;44.782;10.282;2023-02-11T19:47:55;67.95;;;36.03;;
26157;SDS011;67284;44.782;10.282;2023-02-11T19:52:47;63.58;;;34.03;;
26157;SDS011;67284;44.782;10.282;2023-02-11T19:57:39;63.65;;;35.53;;
26157;SDS011;67284;44.782;10.282;2023-02-11T20:02:31;81.82;;;41.42;;
26157;SDS011;67284;44.782;10.282;2023-02-11T20:07:23;82.03;;;40.17;;
26157;SDS011;67284;44.782;10.282;2023-02-11T20:12:15;84.45;;;42.80;;
26157;SDS011;67284;44.782;10.282;2023-02-11T20:17:06;73.30;;;39.53;;
26157;SDS011;67284;44.782;10.282;2023-02-11T20:21:58;76.53;;;39.88;;
26157;SDS011;67284;44.782;10.282;2023-02-11T20:26:50;70.82;;;39.28;;
26157;SDS011;67284;44.782;10.282;2023-02-11T20:31:47;66.68;;;36.25;;
26157;SDS011;67284;44.782;10.282;2023-02-11T20:36:40;63.53;;;34.42;;
26157;SDS011;67284;44.782;10.282;2023-02-11T20:41:33;61.60;;;33.50;;
26157;SDS011;67284;44.782;10.282;2023-02-11T20:46:26;63.20;;;33.85;;
26157;SDS011;67284;44.782;10.282;2023-02-11T20:51:21;64.25;;;33.97;;
26157;SDS011;67284;44.782;10.282;2023-02-11T21:01:17;60.78;;;34.88;;
26157;SDS011;67284;44.782;10.282;2023-02-11T21:06:11;59.80;;;32.63;;
26157;SDS011;67284;44.782;10.282;2023-02-11T21:11:03;61.97;;;31.80;;
26157;SDS011;67284;44.782;10.282;2023-02-11T21:15:58;62.33;;;34.05;;
26157;SDS011;67284;44.782;10.282;2023-02-11T21:20:52;64.10;;;35.88;;
26157;SDS011;67284;44.782;10.282;2023-02-11T21:25:44;60.00;;;33.05;;
26157;SDS011;67284;44.782;10.282;2023-02-11T21:30:37;62.05;;;35.10;;
26157;SDS011;67284;44.782;10.282;2023-02-11T21:35:35;62.88;;;34.85;;
26157;SDS011;67284;44.782;10.282;2023-02-11T21:40:28;62.80;;;34.65;;
26157;SDS011;67284;44.782;10.282;2023-02-11T21:45:20;60.10;;;32.85;;
26157;SDS011;67284;44.782;10.282;2023-02-11T21:50:13;62.30;;;33.53;;
26157;SDS011;67284;44.782;10.282;2023-02-11T21:55:04;52.28;;;30.30;;
26157;SDS011;67284;44.782;10.282;2023-02-11T21:59:57;60.08;;;32.85;;
26157;SDS011;67284;44.782;10.282;2023-02-11T22:04:49;51.05;;;27.52;;
26157;SDS011;67284;44.782;10.282;2023-02-11T22:09:41;50.88;;;25.17;;
26157;SDS011;67284;44.782;10.282;2023-02-11T22:14:35;42.63;;;22.35;;
26157;SDS011;67284;44.782;10.282;2023-02-11T22:19:28;38.08;;;21.45;;
26157;SDS011;67284;44.782;10.282;2023-02-11T22:24:22;36.47;;;19.92;;
26157;SDS011;67284;44.782;10.282;2023-02-11T22:29:14;35.03;;;19.75;;
26157;SDS011;67284;44.782;10.282;2023-02-11T22:34:06;30.63;;;17.98;;
26157;SDS011;67284;44.782;10.282;2023-02-11T22:38:58;27.33;;;15.23;;
26157;SDS011;67284;44.782;10.282;2023-02-11T22:43:55;32.30;;;18.17;;
26157;SDS011;67284;44.782;10.282;2023-02-11T22:48:47;28.98;;;15.65;;
26157;SDS011;67284;44.782;10.282;2023-02-11T22:53:40;35.10;;;17.00;;
26157;SDS011;67284;44.782;10.282;2023-02-11T22:58:33;29.88;;;15.55;;
26157;SDS011;67284;44.782;10.282;2023-02-11T23:03:25;24.00;;;14.75;;
26157;SDS011;67284;44.782;10.282;2023-02-11T23:08:18;24.80;;;15.95;;
26157;SDS011;67284;44.782;10.282;2023-02-11T23:13:13;27.40;;;13.63;;
26157;SDS011;67284;44.782;10.282;2023-02-11T23:18:05;25.77;;;13.43;;
26157;SDS011;67284;44.782;10.282;2023-02-11T23:22:57;25.33;;;13.38;;
26157;SDS011;67284;44.782;10.282;2023-02-11T23:27:49;24.27;;;13.30;;
26157;SDS011;67284;44.782;10.282;2023-02-11T23:32:41;27.67;;;14.15;;
26157;SDS011;67284;44.782;10.282;2023-02-11T23:37:33;27.38;;;14.15;;
26157;SDS011;67284;44.782;10.282;2023-02-11T23:42:24;28.20;;;15.30;;
26157;SDS011;67284;44.782;10.282;2023-02-11T23:47:16;25.45;;;14.38;;
26157;SDS011;67284;44.782;10.282;2023-02-11T23:52:08;23.85;;;13.63;;
26157;SDS011;67284;44.782;10.282;2023-02-11T23:56:59;22.40;;;13.93;;
